createdAt,value
2023-04-28T00:00:45.041Z,9.88
2023-04-28T00:05:49.696Z,9.90
2023-04-28T00:10:54.145Z,9.86
2023-04-28T00:15:56.260Z,9.87
2023-04-28T00:20:57.962Z,9.91
2023-04-28T00:25:59.615Z,9.90
2023-04-28T00:31:01.350Z,9.79
2023-04-28T00:36:03.369Z,9.91
2023-04-28T00:41:06.724Z,9.76
2023-04-28T00:46:08.555Z,9.74
2023-04-28T00:51:10.401Z,9.63
2023-04-28T00:56:12.862Z,9.72
2023-04-28T01:01:16.245Z,9.70
2023-04-28T01:06:18.607Z,9.61
2023-04-28T01:11:20.657Z,9.64
2023-04-28T01:16:43.278Z,9.57
2023-04-28T01:21:44.993Z,9.54
2023-04-28T01:26:56.592Z,9.61
2023-04-28T01:31:58.496Z,9.50
2023-04-28T01:37:00.392Z,9.47
2023-04-28T01:42:02.361Z,9.53
2023-04-28T01:47:04.092Z,9.44
2023-04-28T01:52:06.946Z,9.49
2023-04-28T01:57:08.785Z,9.39
2023-04-28T02:02:11.665Z,9.33
2023-04-28T02:07:13.401Z,9.35
2023-04-28T02:12:18.584Z,9.36
2023-04-28T02:17:20.791Z,9.34
2023-04-28T02:22:23.096Z,9.31
2023-04-28T02:27:24.879Z,9.24
2023-04-28T02:32:26.846Z,9.18
2023-04-28T02:37:28.502Z,9.12
2023-04-28T02:42:30.285Z,9.14
2023-04-28T02:47:31.997Z,9.04
2023-04-28T02:52:33.926Z,9.02
2023-04-28T02:57:35.838Z,9.04
2023-04-28T03:02:38.091Z,9.09
2023-04-28T03:07:39.964Z,9.06
2023-04-28T03:12:41.640Z,9.02
2023-04-28T03:17:43.558Z,8.91
2023-04-28T03:22:46.086Z,8.81
2023-04-28T03:27:48.323Z,8.87
2023-04-28T03:32:50.048Z,8.92
2023-04-28T03:37:54.707Z,8.78
2023-04-28T03:43:00.882Z,8.77
2023-04-28T03:48:08.063Z,8.73
2023-04-28T03:53:09.705Z,8.87
2023-04-28T03:58:11.454Z,8.96
2023-04-28T04:03:13.260Z,8.96
2023-04-28T04:08:15.454Z,8.98
2023-04-28T04:13:19.830Z,9.04
2023-04-28T04:18:22.241Z,9.05
2023-04-28T04:23:53.021Z,9.13
2023-04-28T04:28:54.701Z,9.14
2023-04-28T04:33:56.398Z,9.22
2023-04-28T04:38:59.002Z,9.13
2023-04-28T04:44:01.053Z,9.06
2023-04-28T04:49:10.571Z,9.08
2023-04-28T04:54:12.313Z,8.92
2023-04-28T04:59:17.637Z,8.67
2023-04-28T05:04:30.663Z,8.44
2023-04-28T05:09:33.216Z,8.47
2023-04-28T05:14:35.647Z,8.37
2023-04-28T05:19:37.580Z,8.51
2023-04-28T05:24:39.506Z,8.62
2023-04-28T05:29:41.587Z,8.88
2023-04-28T05:34:44.848Z,8.87
2023-04-28T05:39:47.535Z,8.69
2023-04-28T05:44:49.281Z,8.69
2023-04-28T05:49:51.082Z,8.68
2023-04-28T05:54:52.842Z,8.68
2023-04-28T05:59:54.588Z,8.67
2023-04-28T06:04:57.165Z,8.54
2023-04-28T06:09:59.528Z,8.65
2023-04-28T06:15:01.260Z,8.54
2023-04-28T06:20:03.391Z,8.73
2023-04-28T06:25:06.666Z,8.84
2023-04-28T06:30:27.181Z,8.83
2023-04-28T06:35:29.804Z,8.76
2023-04-28T06:40:31.945Z,8.76
2023-04-28T06:45:35.605Z,8.81
2023-04-28T06:50:37.997Z,8.93
2023-04-28T06:55:50.839Z,8.79
2023-04-28T07:00:52.528Z,8.86
2023-04-28T07:05:54.267Z,9.05
2023-04-28T07:10:56.036Z,9.07
2023-04-28T07:15:57.846Z,9.11
2023-04-28T07:20:59.653Z,9.04
2023-04-28T07:26:01.378Z,8.94
2023-04-28T07:31:03.117Z,8.90
2023-04-28T07:36:06.246Z,8.93
2023-04-28T07:41:10.105Z,8.99
2023-04-28T07:46:13.423Z,8.99
2023-04-28T07:51:15.066Z,8.98
2023-04-28T07:56:17.626Z,8.94
2023-04-28T08:01:19.388Z,8.85
2023-04-28T08:06:21.031Z,8.88
2023-04-28T08:11:22.815Z,8.86
2023-04-28T08:16:24.763Z,8.89
2023-04-28T08:21:27.115Z,8.97
2023-04-28T08:26:29.428Z,9.04
2023-04-28T08:31:31.243Z,9.07
2023-04-28T08:36:33.544Z,9.15
2023-04-28T08:41:41.096Z,9.16
2023-04-28T08:46:44.321Z,9.32
2023-04-28T08:51:51.260Z,9.39
2023-04-28T08:56:53.051Z,9.33
2023-04-28T09:01:54.804Z,9.44
2023-04-28T09:06:56.579Z,9.47
2023-04-28T09:12:00.936Z,9.55
2023-04-28T09:17:09.171Z,9.67
2023-04-28T09:22:25.613Z,9.77
2023-04-28T09:27:29.496Z,9.78
2023-04-28T09:32:31.820Z,9.92
2023-04-28T09:37:37.379Z,9.93
2023-04-28T09:42:44.175Z,10.02
2023-04-28T09:47:51.968Z,10.07
2023-04-28T09:52:57.829Z,10.10
2023-04-28T09:58:06.054Z,10.16
2023-04-28T10:03:09.795Z,10.21
2023-04-28T10:08:13.595Z,10.28
2023-04-28T10:13:19.549Z,10.44
2023-04-28T10:18:23.815Z,10.44
2023-04-28T10:23:25.444Z,10.37
2023-04-28T10:28:27.799Z,10.46
2023-04-28T10:33:29.956Z,10.52
2023-04-28T10:38:32.188Z,10.61
2023-04-28T10:43:39.312Z,10.70
2023-04-28T10:48:47.650Z,10.69
2023-04-28T10:53:50.352Z,10.72
2023-04-28T10:58:54.243Z,10.86
2023-04-28T11:04:01.117Z,10.97
2023-04-28T11:09:15.445Z,11.04
2023-04-28T11:14:18.503Z,11.00
2023-04-28T11:19:22.347Z,10.98
2023-04-28T11:24:29.531Z,11.00
2023-04-28T11:29:38.424Z,11.02
2023-04-28T11:34:40.119Z,11.04
2023-04-28T11:39:42.655Z,10.99
2023-04-28T11:44:52.864Z,11.02
2023-04-28T11:49:54.542Z,10.97
2023-04-28T11:55:00.072Z,11.02
2023-04-28T12:00:19.212Z,10.99
2023-04-28T12:05:22.515Z,11.04
2023-04-28T12:10:24.361Z,11.38
2023-04-28T12:15:40.855Z,11.20
2023-04-28T12:20:43.611Z,10.94
2023-04-28T12:25:46.324Z,10.74
2023-04-28T12:30:49.046Z,11.00
2023-04-28T12:35:50.771Z,10.83
2023-04-28T12:40:52.900Z,10.93
2023-04-28T12:45:58.030Z,10.81
2023-04-28T12:51:00.450Z,10.71
2023-04-28T12:56:02.173Z,10.74
2023-04-28T13:01:04.673Z,10.88
2023-04-28T13:06:06.329Z,10.85
2023-04-28T13:11:21.988Z,10.94
2023-04-28T13:16:29.911Z,11.07
2023-04-28T13:21:31.962Z,11.11
2023-04-28T13:26:33.771Z,11.15
2023-04-28T13:31:35.607Z,11.18
2023-04-28T13:36:37.429Z,11.27
2023-04-28T13:41:39.010Z,11.24
2023-04-28T13:46:40.692Z,11.37
2023-04-28T13:51:42.775Z,11.52
2023-04-28T13:56:44.411Z,11.57
2023-04-28T14:01:46.296Z,11.52
2023-04-28T14:06:50.602Z,11.56
2023-04-28T14:11:52.209Z,11.60
2023-04-28T14:16:53.923Z,11.51
2023-04-28T14:21:55.731Z,11.47
2023-04-28T14:26:57.878Z,11.42
2023-04-28T14:31:59.538Z,11.31
2023-04-28T14:37:01.362Z,11.31
2023-04-28T14:42:03.963Z,11.25
2023-04-28T14:47:05.599Z,11.20
2023-04-28T14:52:07.268Z,11.29
2023-04-28T14:57:08.939Z,11.24
2023-04-28T15:02:12.632Z,11.19
2023-04-28T15:07:14.552Z,11.11
2023-04-28T15:12:16.290Z,11.17
2023-04-28T15:17:20.721Z,11.16
2023-04-28T15:22:22.430Z,11.14
2023-04-28T15:27:24.109Z,11.21
2023-04-28T15:32:26.266Z,11.12
2023-04-28T15:37:44.562Z,11.11
2023-04-28T15:42:49.638Z,11.17
2023-04-28T15:47:51.872Z,11.13
2023-04-28T15:52:53.714Z,11.16
2023-04-28T15:57:56.372Z,11.16
2023-04-28T16:02:58.189Z,11.18
2023-04-28T16:08:00.145Z,11.17
2023-04-28T16:13:02.066Z,11.24
2023-04-28T16:18:07.157Z,11.23
2023-04-28T16:23:13.309Z,11.14
2023-04-28T16:28:15.804Z,11.17
2023-04-28T16:33:20.115Z,11.16
2023-04-28T16:38:23.900Z,11.12
2023-04-28T16:43:25.635Z,11.14
2023-04-28T16:48:27.750Z,11.25
2023-04-28T16:53:29.392Z,11.22
2023-04-28T16:58:31.502Z,11.26
2023-04-28T17:03:34.457Z,11.17
2023-04-28T17:08:36.574Z,11.12
2023-04-28T17:13:38.444Z,11.17
2023-04-28T17:18:41.352Z,11.23
2023-04-28T17:23:43.050Z,11.09
2023-04-28T17:28:44.717Z,10.99
2023-04-28T17:33:48.615Z,10.95
2023-04-28T17:38:51.048Z,10.90
2023-04-28T17:43:52.735Z,10.87
2023-04-28T17:48:54.399Z,10.77
2023-04-28T17:53:56.980Z,10.79
2023-04-28T17:58:58.700Z,10.79
2023-04-28T18:04:00.470Z,10.68
2023-04-28T18:09:02.321Z,10.66
2023-04-28T18:14:05.082Z,10.60
2023-04-28T18:19:06.676Z,10.58
2023-04-28T18:24:08.429Z,10.46
2023-04-28T18:29:10.109Z,10.46
2023-04-28T18:34:11.921Z,10.38
2023-04-28T18:39:13.701Z,10.39
2023-04-28T18:44:15.326Z,10.43
2023-04-28T18:49:18.565Z,10.51
2023-04-28T18:54:20.288Z,10.48
2023-04-28T18:59:21.931Z,10.38
2023-04-28T19:04:23.928Z,10.36
2023-04-28T19:09:25.812Z,10.34
2023-04-28T19:14:27.388Z,10.19
2023-04-28T19:19:28.997Z,10.22
2023-04-28T19:24:30.656Z,10.25
2023-04-28T19:29:32.401Z,10.25
2023-04-28T19:34:34.031Z,10.33
2023-04-28T19:39:36.449Z,10.26
2023-04-28T19:44:38.261Z,10.37
2023-04-28T19:49:42.378Z,10.37
2023-04-28T19:54:45.062Z,10.28
2023-04-28T19:59:50.415Z,10.23
2023-04-28T20:04:52.294Z,10.23
2023-04-28T20:09:56.149Z,10.25
2023-04-28T20:14:57.987Z,10.16
2023-04-28T20:19:59.620Z,10.15
2023-04-28T20:25:05.876Z,10.11
2023-04-28T20:30:08.016Z,10.06
2023-04-28T20:35:09.941Z,9.91
2023-04-28T20:40:12.132Z,10.06
2023-04-28T20:45:13.807Z,9.90
2023-04-28T20:50:15.691Z,9.92
2023-04-28T20:55:17.809Z,9.96
2023-04-28T21:00:19.673Z,10.00
2023-04-28T21:05:22.650Z,10.10
2023-04-28T21:10:24.281Z,9.98
2023-04-28T21:15:26.286Z,9.94
2023-04-28T21:20:28.750Z,9.77
2023-04-28T21:25:30.564Z,9.81
2023-04-28T21:30:34.644Z,10.00
2023-04-28T21:35:36.630Z,10.12
2023-04-28T21:40:38.198Z,9.90
2023-04-28T21:45:39.821Z,9.87
2023-04-28T21:50:41.735Z,9.96
2023-04-28T21:55:44.732Z,9.87
2023-04-28T22:00:47.361Z,9.81
2023-04-28T22:05:49.432Z,9.77
2023-04-28T22:10:51.194Z,9.87
2023-04-28T22:15:53.030Z,9.79
2023-04-28T22:20:54.689Z,9.94
2023-04-28T22:26:01.143Z,9.96
2023-04-28T22:31:03.220Z,9.93
2023-04-28T22:36:05.500Z,9.99
2023-04-28T22:41:07.058Z,9.94
2023-04-28T22:46:08.911Z,9.96
2023-04-28T22:51:10.663Z,9.75
2023-04-28T22:56:12.292Z,9.72
2023-04-28T23:01:14.059Z,9.88
2023-04-28T23:06:15.929Z,9.88
2023-04-28T23:11:19.107Z,9.90
2023-04-28T23:16:20.980Z,9.82
2023-04-28T23:21:22.891Z,9.71
2023-04-28T23:26:24.807Z,9.59
2023-04-28T23:31:26.643Z,9.63
2023-04-28T23:36:28.766Z,9.68
2023-04-28T23:41:30.525Z,9.70
2023-04-28T23:46:32.181Z,9.87
2023-04-28T23:51:33.793Z,9.82
2023-04-28T23:56:35.454Z,9.67
